sensor_id;sensor_type;location;lat;lon;timestamp;temperature;humidity
18930;DHT22;43305;52.186;5.598;2022-07-23T00:01:25;15.30;99.90
18930;DHT22;43305;52.186;5.598;2022-07-23T00:03:53;15.30;99.90
18930;DHT22;43305;52.186;5.598;2022-07-23T00:06:21;15.20;99.90
18930;DHT22;43305;52.186;5.598;2022-07-23T00:08:48;15.20;99.90
18930;DHT22;43305;52.186;5.598;2022-07-23T00:11:16;15.20;99.90
18930;DHT22;43305;52.186;5.598;2022-07-23T00:13:43;15.10;99.90
18930;DHT22;43305;52.186;5.598;2022-07-23T00:16:10;15.10;99.90
18930;DHT22;43305;52.186;5.598;2022-07-23T00:18:37;15.00;99.90
18930;DHT22;43305;52.186;5.598;2022-07-23T00:21:04;15.00;99.90
18930;DHT22;43305;52.186;5.598;2022-07-23T00:23:30;14.90;99.90
18930;DHT22;43305;52.186;5.598;2022-07-23T00:25:57;14.90;99.90
18930;DHT22;43305;52.186;5.598;2022-07-23T00:28:26;14.90;99.90
18930;DHT22;43305;52.186;5.598;2022-07-23T00:30:53;14.80;99.90
18930;DHT22;43305;52.186;5.598;2022-07-23T00:33:20;14.80;99.90
18930;DHT22;43305;52.186;5.598;2022-07-23T00:35:47;14.80;99.90
18930;DHT22;43305;52.186;5.598;2022-07-23T00:38:14;14.70;99.90
18930;DHT22;43305;52.186;5.598;2022-07-23T00:40:41;14.70;99.90
18930;DHT22;43305;52.186;5.598;2022-07-23T00:43:08;14.70;99.90
18930;DHT22;43305;52.186;5.598;2022-07-23T00:45:36;14.70;99.90
18930;DHT22;43305;52.186;5.598;2022-07-23T00:48:03;14.70;99.90
18930;DHT22;43305;52.186;5.598;2022-07-23T00:50:31;14.70;99.90
18930;DHT22;43305;52.186;5.598;2022-07-23T00:52:57;14.60;99.90
18930;DHT22;43305;52.186;5.598;2022-07-23T00:55:24;14.60;99.90
18930;DHT22;43305;52.186;5.598;2022-07-23T00:57:53;14.60;99.90
18930;DHT22;43305;52.186;5.598;2022-07-23T01:00:20;14.60;99.90
18930;DHT22;43305;52.186;5.598;2022-07-23T01:02:49;14.60;99.90
18930;DHT22;43305;52.186;5.598;2022-07-23T01:05:18;14.60;99.90
18930;DHT22;43305;52.186;5.598;2022-07-23T01:07:48;14.60;99.90
18930;DHT22;43305;52.186;5.598;2022-07-23T01:10:15;14.60;99.90
18930;DHT22;43305;52.186;5.598;2022-07-23T01:12:55;14.50;99.90
18930;DHT22;43305;52.186;5.598;2022-07-23T01:15:22;14.50;99.90
18930;DHT22;43305;52.186;5.598;2022-07-23T01:17:51;14.50;99.90
18930;DHT22;43305;52.186;5.598;2022-07-23T01:20:18;14.40;99.90
18930;DHT22;43305;52.186;5.598;2022-07-23T01:22:46;14.40;99.90
18930;DHT22;43305;52.186;5.598;2022-07-23T01:25:14;14.40;99.90
18930;DHT22;43305;52.186;5.598;2022-07-23T01:27:41;14.40;99.90
18930;DHT22;43305;52.186;5.598;2022-07-23T01:30:11;14.30;99.90
18930;DHT22;43305;52.186;5.598;2022-07-23T01:32:38;14.30;99.90
18930;DHT22;43305;52.186;5.598;2022-07-23T01:35:06;14.30;99.90
18930;DHT22;43305;52.186;5.598;2022-07-23T01:37:33;14.20;99.90
18930;DHT22;43305;52.186;5.598;2022-07-23T01:40:02;14.20;99.90
18930;DHT22;43305;52.186;5.598;2022-07-23T01:42:29;14.10;99.90
18930;DHT22;43305;52.186;5.598;2022-07-23T01:44:56;14.10;99.90
18930;DHT22;43305;52.186;5.598;2022-07-23T01:47:23;14.00;99.90
18930;DHT22;43305;52.186;5.598;2022-07-23T01:49:50;14.10;99.90
18930;DHT22;43305;52.186;5.598;2022-07-23T01:52:17;14.00;99.90
18930;DHT22;43305;52.186;5.598;2022-07-23T01:54:46;14.00;99.90
18930;DHT22;43305;52.186;5.598;2022-07-23T01:57:16;14.00;99.90
18930;DHT22;43305;52.186;5.598;2022-07-23T01:59:43;14.00;99.90
18930;DHT22;43305;52.186;5.598;2022-07-23T02:02:10;13.90;99.90
18930;DHT22;43305;52.186;5.598;2022-07-23T02:04:36;13.90;99.90
18930;DHT22;43305;52.186;5.598;2022-07-23T02:07:04;13.90;99.90
18930;DHT22;43305;52.186;5.598;2022-07-23T02:09:31;13.90;99.90
18930;DHT22;43305;52.186;5.598;2022-07-23T02:11:58;13.80;99.90
18930;DHT22;43305;52.186;5.598;2022-07-23T02:14:27;13.70;99.90
18930;DHT22;43305;52.186;5.598;2022-07-23T02:16:54;13.80;99.90
18930;DHT22;43305;52.186;5.598;2022-07-23T02:19:21;13.70;99.90
18930;DHT22;43305;52.186;5.598;2022-07-23T02:21:48;13.70;99.90
18930;DHT22;43305;52.186;5.598;2022-07-23T02:24:15;13.70;99.90
18930;DHT22;43305;52.186;5.598;2022-07-23T02:26:43;13.70;99.90
18930;DHT22;43305;52.186;5.598;2022-07-23T02:29:10;13.70;99.90
18930;DHT22;43305;52.186;5.598;2022-07-23T02:31:38;13.70;99.90
18930;DHT22;43305;52.186;5.598;2022-07-23T02:34:06;13.60;99.90
18930;DHT22;43305;52.186;5.598;2022-07-23T02:36:32;13.60;99.90
18930;DHT22;43305;52.186;5.598;2022-07-23T02:38:59;13.60;99.90
18930;DHT22;43305;52.186;5.598;2022-07-23T02:41:26;13.50;99.90
18930;DHT22;43305;52.186;5.598;2022-07-23T02:43:53;13.50;99.90
18930;DHT22;43305;52.186;5.598;2022-07-23T02:46:20;13.50;99.90
18930;DHT22;43305;52.186;5.598;2022-07-23T02:48:48;13.50;99.90
18930;DHT22;43305;52.186;5.598;2022-07-23T02:51:15;13.50;99.90
18930;DHT22;43305;52.186;5.598;2022-07-23T02:53:42;13.40;99.90
18930;DHT22;43305;52.186;5.598;2022-07-23T02:56:08;13.40;99.90
18930;DHT22;43305;52.186;5.598;2022-07-23T02:58:35;13.40;99.90
18930;DHT22;43305;52.186;5.598;2022-07-23T03:01:03;13.40;99.90
18930;DHT22;43305;52.186;5.598;2022-07-23T03:03:30;13.30;99.90
18930;DHT22;43305;52.186;5.598;2022-07-23T03:06:00;13.30;99.90
18930;DHT22;43305;52.186;5.598;2022-07-23T03:08:30;13.30;99.90
18930;DHT22;43305;52.186;5.598;2022-07-23T03:10:57;13.20;99.90
18930;DHT22;43305;52.186;5.598;2022-07-23T03:13:23;13.20;99.90
18930;DHT22;43305;52.186;5.598;2022-07-23T03:15:50;13.20;99.90
18930;DHT22;43305;52.186;5.598;2022-07-23T03:18:17;13.10;99.90
18930;DHT22;43305;52.186;5.598;2022-07-23T03:20:44;13.10;99.90
18930;DHT22;43305;52.186;5.598;2022-07-23T03:23:12;13.10;99.90
18930;DHT22;43305;52.186;5.598;2022-07-23T03:25:39;13.10;99.90
18930;DHT22;43305;52.186;5.598;2022-07-23T03:28:06;13.10;99.90
18930;DHT22;43305;52.186;5.598;2022-07-23T03:30:33;13.00;99.90
18930;DHT22;43305;52.186;5.598;2022-07-23T03:33:00;13.00;99.90
18930;DHT22;43305;52.186;5.598;2022-07-23T03:35:27;13.00;99.90
18930;DHT22;43305;52.186;5.598;2022-07-23T03:37:54;13.00;99.90
18930;DHT22;43305;52.186;5.598;2022-07-23T03:40:22;13.00;99.90
18930;DHT22;43305;52.186;5.598;2022-07-23T03:42:49;13.00;99.90
18930;DHT22;43305;52.186;5.598;2022-07-23T03:45:16;13.00;99.90
18930;DHT22;43305;52.186;5.598;2022-07-23T03:47:43;12.90;99.90
18930;DHT22;43305;52.186;5.598;2022-07-23T03:50:10;12.80;99.90
18930;DHT22;43305;52.186;5.598;2022-07-23T03:52:37;12.90;99.90
18930;DHT22;43305;52.186;5.598;2022-07-23T03:55:05;12.90;99.90
18930;DHT22;43305;52.186;5.598;2022-07-23T03:57:34;12.90;99.90
18930;DHT22;43305;52.186;5.598;2022-07-23T04:00:03;12.80;99.90
18930;DHT22;43305;52.186;5.598;2022-07-23T04:02:30;12.80;99.90
18930;DHT22;43305;52.186;5.598;2022-07-23T04:04:57;12.80;99.90
18930;DHT22;43305;52.186;5.598;2022-07-23T04:07:24;12.80;99.90
18930;DHT22;43305;52.186;5.598;2022-07-23T04:09:51;12.70;99.90
18930;DHT22;43305;52.186;5.598;2022-07-23T04:12:18;12.80;99.90
18930;DHT22;43305;52.186;5.598;2022-07-23T04:14:47;12.70;99.90
18930;DHT22;43305;52.186;5.598;2022-07-23T04:17:14;12.70;99.90
18930;DHT22;43305;52.186;5.598;2022-07-23T04:19:41;12.70;99.90
18930;DHT22;43305;52.186;5.598;2022-07-23T04:22:09;12.70;99.90
18930;DHT22;43305;52.186;5.598;2022-07-23T04:24:36;12.70;99.90
18930;DHT22;43305;52.186;5.598;2022-07-23T04:27:03;12.70;99.90
18930;DHT22;43305;52.186;5.598;2022-07-23T04:29:30;12.80;99.90
18930;DHT22;43305;52.186;5.598;2022-07-23T04:31:59;12.80;99.90
18930;DHT22;43305;52.186;5.598;2022-07-23T04:34:26;12.90;99.90
18930;DHT22;43305;52.186;5.598;2022-07-23T04:36:53;12.90;99.90
18930;DHT22;43305;52.186;5.598;2022-07-23T04:39:20;12.90;99.90
18930;DHT22;43305;52.186;5.598;2022-07-23T04:41:47;13.00;99.90
18930;DHT22;43305;52.186;5.598;2022-07-23T04:44:14;13.00;99.90
18930;DHT22;43305;52.186;5.598;2022-07-23T04:46:41;13.10;99.90
18930;DHT22;43305;52.186;5.598;2022-07-23T04:49:10;13.10;99.90
18930;DHT22;43305;52.186;5.598;2022-07-23T04:51:37;13.10;99.90
18930;DHT22;43305;52.186;5.598;2022-07-23T04:54:04;13.10;99.90
18930;DHT22;43305;52.186;5.598;2022-07-23T04:56:30;13.10;99.90
18930;DHT22;43305;52.186;5.598;2022-07-23T04:58:58;13.20;99.90
18930;DHT22;43305;52.186;5.598;2022-07-23T05:01:25;13.10;99.90
18930;DHT22;43305;52.186;5.598;2022-07-23T05:03:51;13.10;99.90
18930;DHT22;43305;52.186;5.598;2022-07-23T05:06:20;13.20;99.90
18930;DHT22;43305;52.186;5.598;2022-07-23T05:08:47;13.20;99.90
18930;DHT22;43305;52.186;5.598;2022-07-23T05:11:14;13.20;99.90
18930;DHT22;43305;52.186;5.598;2022-07-23T05:13:40;13.30;99.90
18930;DHT22;43305;52.186;5.598;2022-07-23T05:16:07;13.40;99.90
18930;DHT22;43305;52.186;5.598;2022-07-23T05:18:34;13.50;99.90
18930;DHT22;43305;52.186;5.598;2022-07-23T05:21:01;13.60;99.90
18930;DHT22;43305;52.186;5.598;2022-07-23T05:23:29;13.90;99.90
18930;DHT22;43305;52.186;5.598;2022-07-23T05:25:56;14.20;99.90
18930;DHT22;43305;52.186;5.598;2022-07-23T05:28:23;14.40;99.90
18930;DHT22;43305;52.186;5.598;2022-07-23T05:30:49;14.70;99.90
18930;DHT22;43305;52.186;5.598;2022-07-23T05:33:20;14.80;99.90
18930;DHT22;43305;52.186;5.598;2022-07-23T05:35:47;14.90;99.90
18930;DHT22;43305;52.186;5.598;2022-07-23T05:38:14;15.10;99.90
18930;DHT22;43305;52.186;5.598;2022-07-23T05:40:42;15.20;99.90
18930;DHT22;43305;52.186;5.598;2022-07-23T05:43:09;15.20;99.90
18930;DHT22;43305;52.186;5.598;2022-07-23T05:45:36;15.40;99.90
18930;DHT22;43305;52.186;5.598;2022-07-23T05:48:04;15.50;99.90
18930;DHT22;43305;52.186;5.598;2022-07-23T05:50:31;15.60;99.90
18930;DHT22;43305;52.186;5.598;2022-07-23T05:52:58;15.80;99.90
18930;DHT22;43305;52.186;5.598;2022-07-23T05:55:25;15.90;99.90
18930;DHT22;43305;52.186;5.598;2022-07-23T05:57:57;16.10;99.90
18930;DHT22;43305;52.186;5.598;2022-07-23T06:00:24;16.30;99.90
18930;DHT22;43305;52.186;5.598;2022-07-23T06:02:52;16.50;99.90
18930;DHT22;43305;52.186;5.598;2022-07-23T06:05:20;16.60;99.90
18930;DHT22;43305;52.186;5.598;2022-07-23T06:07:47;16.70;99.90
18930;DHT22;43305;52.186;5.598;2022-07-23T06:10:13;16.80;99.90
18930;DHT22;43305;52.186;5.598;2022-07-23T06:12:41;16.90;99.90
18930;DHT22;43305;52.186;5.598;2022-07-23T06:15:09;17.00;99.90
18930;DHT22;43305;52.186;5.598;2022-07-23T06:17:37;17.10;99.90
18930;DHT22;43305;52.186;5.598;2022-07-23T06:20:06;17.20;99.90
18930;DHT22;43305;52.186;5.598;2022-07-23T06:22:33;17.30;99.90
18930;DHT22;43305;52.186;5.598;2022-07-23T06:24:59;17.40;99.90
18930;DHT22;43305;52.186;5.598;2022-07-23T06:27:26;17.40;99.90
18930;DHT22;43305;52.186;5.598;2022-07-23T06:29:53;17.40;99.90
18930;DHT22;43305;52.186;5.598;2022-07-23T06:32:22;17.50;99.90
18930;DHT22;43305;52.186;5.598;2022-07-23T06:34:51;17.50;99.90
18930;DHT22;43305;52.186;5.598;2022-07-23T06:37:18;17.50;99.90
18930;DHT22;43305;52.186;5.598;2022-07-23T06:39:45;17.50;99.90
18930;DHT22;43305;52.186;5.598;2022-07-23T06:42:13;17.60;99.90
18930;DHT22;43305;52.186;5.598;2022-07-23T06:44:41;17.50;99.90
18930;DHT22;43305;52.186;5.598;2022-07-23T06:47:08;17.50;99.90
18930;DHT22;43305;52.186;5.598;2022-07-23T06:49:37;17.40;99.90
18930;DHT22;43305;52.186;5.598;2022-07-23T06:52:06;17.30;99.90
18930;DHT22;43305;52.186;5.598;2022-07-23T06:54:33;17.30;99.90
18930;DHT22;43305;52.186;5.598;2022-07-23T06:57:05;17.40;99.90
18930;DHT22;43305;52.186;5.598;2022-07-23T06:59:32;17.50;99.90
18930;DHT22;43305;52.186;5.598;2022-07-23T07:02:01;17.50;99.90
18930;DHT22;43305;52.186;5.598;2022-07-23T07:04:28;17.40;99.90
18930;DHT22;43305;52.186;5.598;2022-07-23T07:06:56;17.50;99.90
18930;DHT22;43305;52.186;5.598;2022-07-23T07:09:25;17.60;99.90
18930;DHT22;43305;52.186;5.598;2022-07-23T07:11:52;17.80;99.90
18930;DHT22;43305;52.186;5.598;2022-07-23T07:14:19;17.90;99.90
18930;DHT22;43305;52.186;5.598;2022-07-23T07:16:46;18.00;99.90
18930;DHT22;43305;52.186;5.598;2022-07-23T07:19:13;18.10;99.90
18930;DHT22;43305;52.186;5.598;2022-07-23T07:21:40;18.20;99.90
18930;DHT22;43305;52.186;5.598;2022-07-23T07:24:08;18.30;99.90
18930;DHT22;43305;52.186;5.598;2022-07-23T07:26:35;18.50;99.90
18930;DHT22;43305;52.186;5.598;2022-07-23T07:29:06;18.50;99.90
18930;DHT22;43305;52.186;5.598;2022-07-23T07:31:33;18.50;99.90
18930;DHT22;43305;52.186;5.598;2022-07-23T07:34:00;18.30;99.90
18930;DHT22;43305;52.186;5.598;2022-07-23T07:39:10;18.00;99.90
18930;DHT22;43305;52.186;5.598;2022-07-23T07:41:39;18.30;99.90
18930;DHT22;43305;52.186;5.598;2022-07-23T07:44:26;18.50;99.90
18930;DHT22;43305;52.186;5.598;2022-07-23T07:46:54;18.80;99.90
18930;DHT22;43305;52.186;5.598;2022-07-23T07:49:22;19.00;99.90
18930;DHT22;43305;52.186;5.598;2022-07-23T07:51:52;19.20;99.90
18930;DHT22;43305;52.186;5.598;2022-07-23T07:54:24;19.30;99.90
18930;DHT22;43305;52.186;5.598;2022-07-23T07:56:58;19.50;99.90
18930;DHT22;43305;52.186;5.598;2022-07-23T07:59:59;19.60;99.90
18930;DHT22;43305;52.186;5.598;2022-07-23T08:02:39;19.50;99.90
18930;DHT22;43305;52.186;5.598;2022-07-23T08:05:12;19.40;99.90
18930;DHT22;43305;52.186;5.598;2022-07-23T08:07:40;19.40;99.90
18930;DHT22;43305;52.186;5.598;2022-07-23T08:10:26;19.20;99.90
18930;DHT22;43305;52.186;5.598;2022-07-23T08:12:54;19.10;99.90
18930;DHT22;43305;52.186;5.598;2022-07-23T08:15:23;19.20;99.90
18930;DHT22;43305;52.186;5.598;2022-07-23T08:17:50;19.10;99.90
18930;DHT22;43305;52.186;5.598;2022-07-23T08:22:56;19.10;99.90
18930;DHT22;43305;52.186;5.598;2022-07-23T08:25:32;19.10;99.90
18930;DHT22;43305;52.186;5.598;2022-07-23T08:28:01;19.20;99.90
18930;DHT22;43305;52.186;5.598;2022-07-23T08:30:29;19.10;99.90
18930;DHT22;43305;52.186;5.598;2022-07-23T08:33:01;19.00;99.90
18930;DHT22;43305;52.186;5.598;2022-07-23T08:35:30;19.20;99.90
18930;DHT22;43305;52.186;5.598;2022-07-23T08:37:58;19.20;99.90
18930;DHT22;43305;52.186;5.598;2022-07-23T08:40:32;19.40;99.90
18930;DHT22;43305;52.186;5.598;2022-07-23T08:43:00;19.50;99.90
18930;DHT22;43305;52.186;5.598;2022-07-23T08:45:29;19.50;99.90
18930;DHT22;43305;52.186;5.598;2022-07-23T08:47:59;19.50;99.90
18930;DHT22;43305;52.186;5.598;2022-07-23T08:50:26;19.40;99.90
18930;DHT22;43305;52.186;5.598;2022-07-23T08:52:55;19.50;99.90
18930;DHT22;43305;52.186;5.598;2022-07-23T08:55:38;19.60;99.90
18930;DHT22;43305;52.186;5.598;2022-07-23T08:58:11;19.70;99.90
18930;DHT22;43305;52.186;5.598;2022-07-23T09:01:15;19.90;99.90
18930;DHT22;43305;52.186;5.598;2022-07-23T09:03:42;20.10;99.90
18930;DHT22;43305;52.186;5.598;2022-07-23T09:06:13;20.00;99.90
18930;DHT22;43305;52.186;5.598;2022-07-23T09:08:51;20.00;99.90
18930;DHT22;43305;52.186;5.598;2022-07-23T09:11:20;19.90;99.90
18930;DHT22;43305;52.186;5.598;2022-07-23T09:13:48;19.90;99.90
18930;DHT22;43305;52.186;5.598;2022-07-23T09:16:24;19.80;99.90
18930;DHT22;43305;52.186;5.598;2022-07-23T09:18:56;19.80;99.90
18930;DHT22;43305;52.186;5.598;2022-07-23T09:21:26;19.90;99.90
18930;DHT22;43305;52.186;5.598;2022-07-23T09:23:58;20.00;99.90
18930;DHT22;43305;52.186;5.598;2022-07-23T09:26:34;20.00;99.90
18930;DHT22;43305;52.186;5.598;2022-07-23T09:29:05;20.20;99.90
18930;DHT22;43305;52.186;5.598;2022-07-23T09:31:34;20.30;99.90
18930;DHT22;43305;52.186;5.598;2022-07-23T09:34:11;20.40;99.90
18930;DHT22;43305;52.186;5.598;2022-07-23T09:36:41;20.30;99.90
18930;DHT22;43305;52.186;5.598;2022-07-23T09:39:08;20.30;99.90
18930;DHT22;43305;52.186;5.598;2022-07-23T09:41:42;20.30;99.90
18930;DHT22;43305;52.186;5.598;2022-07-23T09:44:18;20.40;99.90
18930;DHT22;43305;52.186;5.598;2022-07-23T09:46:47;20.50;99.90
18930;DHT22;43305;52.186;5.598;2022-07-23T09:49:17;20.70;99.90
18930;DHT22;43305;52.186;5.598;2022-07-23T09:51:50;20.70;99.90
18930;DHT22;43305;52.186;5.598;2022-07-23T09:54:23;20.80;99.90
18930;DHT22;43305;52.186;5.598;2022-07-23T09:56:54;20.70;99.90
18930;DHT22;43305;52.186;5.598;2022-07-23T09:59:31;20.60;99.90
18930;DHT22;43305;52.186;5.598;2022-07-23T10:02:00;20.80;99.90
18930;DHT22;43305;52.186;5.598;2022-07-23T10:04:30;20.60;99.90
18930;DHT22;43305;52.186;5.598;2022-07-23T10:06:58;20.60;99.90
18930;DHT22;43305;52.186;5.598;2022-07-23T10:09:28;20.60;99.90
18930;DHT22;43305;52.186;5.598;2022-07-23T10:12:05;20.80;99.90
18930;DHT22;43305;52.186;5.598;2022-07-23T10:14:46;21.00;99.90
18930;DHT22;43305;52.186;5.598;2022-07-23T10:17:14;21.20;99.90
18930;DHT22;43305;52.186;5.598;2022-07-23T10:19:43;21.10;99.90
18930;DHT22;43305;52.186;5.598;2022-07-23T10:22:13;21.00;99.90
18930;DHT22;43305;52.186;5.598;2022-07-23T10:24:50;21.00;99.90
18930;DHT22;43305;52.186;5.598;2022-07-23T10:30:18;21.20;99.90
18930;DHT22;43305;52.186;5.598;2022-07-23T10:32:58;21.30;99.90
18930;DHT22;43305;52.186;5.598;2022-07-23T10:35:33;21.50;99.90
18930;DHT22;43305;52.186;5.598;2022-07-23T10:38:11;21.60;99.90
18930;DHT22;43305;52.186;5.598;2022-07-23T10:40:53;21.70;99.90
18930;DHT22;43305;52.186;5.598;2022-07-23T10:43:22;21.80;99.90
18930;DHT22;43305;52.186;5.598;2022-07-23T10:45:49;21.90;99.90
18930;DHT22;43305;52.186;5.598;2022-07-23T10:48:18;21.90;99.90
18930;DHT22;43305;52.186;5.598;2022-07-23T10:51:09;21.80;99.90
18930;DHT22;43305;52.186;5.598;2022-07-23T10:53:52;21.70;99.90
18930;DHT22;43305;52.186;5.598;2022-07-23T10:59:18;21.60;99.90
18930;DHT22;43305;52.186;5.598;2022-07-23T11:01:44;21.80;99.90
18930;DHT22;43305;52.186;5.598;2022-07-23T11:04:12;21.90;99.90
18930;DHT22;43305;52.186;5.598;2022-07-23T11:09:39;22.00;99.90
18930;DHT22;43305;52.186;5.598;2022-07-23T11:15:07;21.90;99.90
18930;DHT22;43305;52.186;5.598;2022-07-23T11:17:36;21.80;99.90
18930;DHT22;43305;52.186;5.598;2022-07-23T11:20:19;21.80;99.90
18930;DHT22;43305;52.186;5.598;2022-07-23T11:22:48;21.90;99.90
18930;DHT22;43305;52.186;5.598;2022-07-23T11:25:33;21.90;99.90
18930;DHT22;43305;52.186;5.598;2022-07-23T11:28:11;22.00;99.90
18930;DHT22;43305;52.186;5.598;2022-07-23T11:30:42;22.20;99.90
18930;DHT22;43305;52.186;5.598;2022-07-23T11:33:24;22.40;99.90
18930;DHT22;43305;52.186;5.598;2022-07-23T11:36:00;22.50;99.90
18930;DHT22;43305;52.186;5.598;2022-07-23T11:38:32;22.50;99.90
18930;DHT22;43305;52.186;5.598;2022-07-23T11:41:08;22.60;99.90
18930;DHT22;43305;52.186;5.598;2022-07-23T11:43:36;22.60;99.90
18930;DHT22;43305;52.186;5.598;2022-07-23T11:46:09;22.60;99.90
18930;DHT22;43305;52.186;5.598;2022-07-23T11:48:41;22.70;99.90
18930;DHT22;43305;52.186;5.598;2022-07-23T11:51:24;22.80;99.90
18930;DHT22;43305;52.186;5.598;2022-07-23T11:54:07;22.90;99.90
18930;DHT22;43305;52.186;5.598;2022-07-23T11:56:54;23.00;99.90
18930;DHT22;43305;52.186;5.598;2022-07-23T11:59:23;22.80;99.90
18930;DHT22;43305;52.186;5.598;2022-07-23T12:01:58;22.80;99.90
18930;DHT22;43305;52.186;5.598;2022-07-23T12:04:29;22.70;99.90
18930;DHT22;43305;52.186;5.598;2022-07-23T12:07:03;22.80;99.90
18930;DHT22;43305;52.186;5.598;2022-07-23T12:09:29;22.90;99.90
18930;DHT22;43305;52.186;5.598;2022-07-23T12:11:57;23.00;99.90
18930;DHT22;43305;52.186;5.598;2022-07-23T12:14:27;23.10;99.90
18930;DHT22;43305;52.186;5.598;2022-07-23T12:17:10;23.20;99.90
18930;DHT22;43305;52.186;5.598;2022-07-23T12:19:37;23.40;99.90
18930;DHT22;43305;52.186;5.598;2022-07-23T12:22:04;23.50;99.90
18930;DHT22;43305;52.186;5.598;2022-07-23T12:24:31;23.40;99.90
18930;DHT22;43305;52.186;5.598;2022-07-23T12:27:12;23.50;99.90
18930;DHT22;43305;52.186;5.598;2022-07-23T12:29:40;23.40;99.90
18930;DHT22;43305;52.186;5.598;2022-07-23T12:32:22;23.50;99.90
18930;DHT22;43305;52.186;5.598;2022-07-23T12:35:00;23.60;99.90
18930;DHT22;43305;52.186;5.598;2022-07-23T12:37:33;23.70;99.90
18930;DHT22;43305;52.186;5.598;2022-07-23T12:40:19;23.70;99.90
18930;DHT22;43305;52.186;5.598;2022-07-23T12:42:47;23.70;99.90
18930;DHT22;43305;52.186;5.598;2022-07-23T12:45:14;23.90;99.90
18930;DHT22;43305;52.186;5.598;2022-07-23T12:47:58;24.00;99.90
18930;DHT22;43305;52.186;5.598;2022-07-23T12:50:37;24.00;99.90
18930;DHT22;43305;52.186;5.598;2022-07-23T12:53:09;24.10;99.90
18930;DHT22;43305;52.186;5.598;2022-07-23T12:55:37;24.20;99.90
18930;DHT22;43305;52.186;5.598;2022-07-23T12:58:05;24.40;99.90
18930;DHT22;43305;52.186;5.598;2022-07-23T13:00:34;24.60;99.90
18930;DHT22;43305;52.186;5.598;2022-07-23T13:03:23;24.60;99.90
18930;DHT22;43305;52.186;5.598;2022-07-23T13:05:50;24.80;99.90
18930;DHT22;43305;52.186;5.598;2022-07-23T13:08:17;24.90;99.90
18930;DHT22;43305;52.186;5.598;2022-07-23T13:10:44;24.80;99.90
18930;DHT22;43305;52.186;5.598;2022-07-23T13:13:13;24.80;99.90
18930;DHT22;43305;52.186;5.598;2022-07-23T13:15:43;25.00;99.90
18930;DHT22;43305;52.186;5.598;2022-07-23T13:18:09;24.90;99.90
18930;DHT22;43305;52.186;5.598;2022-07-23T13:20:40;25.00;99.90
18930;DHT22;43305;52.186;5.598;2022-07-23T13:23:07;25.10;99.90
18930;DHT22;43305;52.186;5.598;2022-07-23T13:25:34;25.20;99.90
18930;DHT22;43305;52.186;5.598;2022-07-23T13:28:01;25.40;99.90
18930;DHT22;43305;52.186;5.598;2022-07-23T13:30:30;25.50;99.90
18930;DHT22;43305;52.186;5.598;2022-07-23T13:32:57;25.70;99.90
18930;DHT22;43305;52.186;5.598;2022-07-23T13:35:24;25.90;99.90
18930;DHT22;43305;52.186;5.598;2022-07-23T13:37:52;26.10;99.90
18930;DHT22;43305;52.186;5.598;2022-07-23T13:40:21;26.30;99.90
18930;DHT22;43305;52.186;5.598;2022-07-23T13:42:51;26.20;99.90
18930;DHT22;43305;52.186;5.598;2022-07-23T13:45:18;26.00;99.90
18930;DHT22;43305;52.186;5.598;2022-07-23T13:47:47;26.10;99.90
18930;DHT22;43305;52.186;5.598;2022-07-23T13:50:13;26.20;99.90
18930;DHT22;43305;52.186;5.598;2022-07-23T13:52:42;26.40;99.90
18930;DHT22;43305;52.186;5.598;2022-07-23T13:55:13;26.70;99.90
18930;DHT22;43305;52.186;5.598;2022-07-23T13:57:40;26.70;99.90
18930;DHT22;43305;52.186;5.598;2022-07-23T14:00:09;26.90;99.90
18930;DHT22;43305;52.186;5.598;2022-07-23T14:02:38;26.90;99.90
18930;DHT22;43305;52.186;5.598;2022-07-23T14:05:06;27.20;99.90
18930;DHT22;43305;52.186;5.598;2022-07-23T14:07:34;27.20;99.90
18930;DHT22;43305;52.186;5.598;2022-07-23T14:10:01;27.20;99.90
18930;DHT22;43305;52.186;5.598;2022-07-23T14:12:31;27.50;99.90
18930;DHT22;43305;52.186;5.598;2022-07-23T14:14:58;27.50;99.90
18930;DHT22;43305;52.186;5.598;2022-07-23T14:17:25;27.80;99.90
18930;DHT22;43305;52.186;5.598;2022-07-23T14:19:52;28.30;99.90
18930;DHT22;43305;52.186;5.598;2022-07-23T14:22:21;28.70;99.90
18930;DHT22;43305;52.186;5.598;2022-07-23T14:24:51;29.10;99.90
18930;DHT22;43305;52.186;5.598;2022-07-23T14:27:18;28.90;99.90
18930;DHT22;43305;52.186;5.598;2022-07-23T14:29:49;28.90;99.90
18930;DHT22;43305;52.186;5.598;2022-07-23T14:32:16;28.70;99.90
18930;DHT22;43305;52.186;5.598;2022-07-23T14:34:46;28.80;99.90
18930;DHT22;43305;52.186;5.598;2022-07-23T14:37:17;29.40;99.90
18930;DHT22;43305;52.186;5.598;2022-07-23T14:39:45;29.40;99.90
18930;DHT22;43305;52.186;5.598;2022-07-23T14:42:15;29.20;99.90
18930;DHT22;43305;52.186;5.598;2022-07-23T14:44:42;29.20;99.90
18930;DHT22;43305;52.186;5.598;2022-07-23T14:47:11;29.60;99.90
18930;DHT22;43305;52.186;5.598;2022-07-23T14:49:37;29.80;99.90
18930;DHT22;43305;52.186;5.598;2022-07-23T14:52:07;29.40;99.90
18930;DHT22;43305;52.186;5.598;2022-07-23T14:54:34;29.20;99.90
18930;DHT22;43305;52.186;5.598;2022-07-23T14:57:01;29.30;99.90
18930;DHT22;43305;52.186;5.598;2022-07-23T14:59:33;29.70;99.90
18930;DHT22;43305;52.186;5.598;2022-07-23T15:02:02;29.40;99.90
18930;DHT22;43305;52.186;5.598;2022-07-23T15:04:31;29.50;99.90
18930;DHT22;43305;52.186;5.598;2022-07-23T15:06:58;29.60;99.90
18930;DHT22;43305;52.186;5.598;2022-07-23T15:09:27;29.60;99.90
18930;DHT22;43305;52.186;5.598;2022-07-23T15:11:53;29.80;99.90
18930;DHT22;43305;52.186;5.598;2022-07-23T15:14:23;29.90;99.90
18930;DHT22;43305;52.186;5.598;2022-07-23T15:16:50;29.90;99.90
18930;DHT22;43305;52.186;5.598;2022-07-23T15:19:27;29.90;99.90
18930;DHT22;43305;52.186;5.598;2022-07-23T15:21:56;29.90;99.90
18930;DHT22;43305;52.186;5.598;2022-07-23T15:24:26;29.60;99.90
18930;DHT22;43305;52.186;5.598;2022-07-23T15:26:53;29.00;99.90
18930;DHT22;43305;52.186;5.598;2022-07-23T15:29:23;28.70;99.90
18930;DHT22;43305;52.186;5.598;2022-07-23T15:31:50;28.80;99.90
18930;DHT22;43305;52.186;5.598;2022-07-23T15:34:18;29.00;99.90
18930;DHT22;43305;52.186;5.598;2022-07-23T15:36:45;28.80;99.90
18930;DHT22;43305;52.186;5.598;2022-07-23T15:39:15;28.90;99.90
18930;DHT22;43305;52.186;5.598;2022-07-23T15:41:42;28.40;99.90
18930;DHT22;43305;52.186;5.598;2022-07-23T15:44:09;28.00;99.90
18930;DHT22;43305;52.186;5.598;2022-07-23T15:46:36;27.80;99.90
18930;DHT22;43305;52.186;5.598;2022-07-23T15:49:07;27.80;99.90
18930;DHT22;43305;52.186;5.598;2022-07-23T15:51:34;27.60;99.90
18930;DHT22;43305;52.186;5.598;2022-07-23T15:54:02;27.60;99.90
18930;DHT22;43305;52.186;5.598;2022-07-23T15:56:31;27.60;99.90
18930;DHT22;43305;52.186;5.598;2022-07-23T15:58:59;27.60;99.90
18930;DHT22;43305;52.186;5.598;2022-07-23T16:01:26;27.60;99.90